CYPR/YPR METAR and TAF weather

Enter ICAO airport designator
Station Type Date Time Source
CYPR METAR 2023/02/05 13:00 UTC NOAA

CYPR 051300Z AUTO 28011G17KT 250V320 9SM SCT024 05/02 A2966 RMK SLP045


Station Type Date Time Source
CYPR Decoded METAR 2023/02/05 13:00 UTC NOAA

Prince Rupert, B. C., Canada (CYPR) 54-18N 130-26W 34M
Feb 05, 2023 - 08:00 AM EST / 2023.02.05 1300 UTC
Wind: from the W (280 degrees) at 13 MPH (11 KT) gusting to 20 MPH (17 KT) (direction variable):0
Visibility: 9 mile(s):0
Sky conditions: partly cloudy
Temperature: 41 F (5 C)
Dew Point: 35 F (2 C)
Relative Humidity: 80%
Pressure (altimeter): 29.66 in. Hg (1004 hPa)
ob: CYPR 051300Z AUTO 28011G17KT 250V320 9SM SCT024 05/02 A2966 RMK SLP045
cycle: 13

Station Type Date Time Source
CYPR TAF 2023/02/05 13:42 UTC NOAA

TAF TAF CYPR 051240Z 0513/0601 28010G20KT P6SM SCT015 BKN040
TEMPO 0513/0518 5SM -SHRA BR BKN015 OVC030
FM051800 30010KT P6SM SCT015 BKN040
TEMPO 0518/0522 BKN015 BKN030
FM052200 15012G25KT P6SM -RA SCT020 BKN030
TEMPO 0522/0601 4SM -RA BR BKN015
RMK FCST BASED ON AUTO OBS. NXT FCST BY 051900Z

Example: see airport list